createdAt,value
2022-12-23T00:00:38.719Z,4.38
2022-12-23T00:03:05.760Z,4.78
2022-12-23T00:05:38.206Z,4.82
2022-12-23T00:08:06.712Z,3.80
2022-12-23T00:10:34.991Z,3.65
2022-12-23T00:13:20.355Z,3.38
2022-12-23T00:15:47.076Z,4.05
2022-12-23T00:18:13.924Z,4.07
2022-12-23T00:20:40.652Z,3.22
2022-12-23T00:23:07.509Z,3.78
2022-12-23T00:25:43.869Z,3.67
2022-12-23T00:28:17.213Z,4.10
2022-12-23T00:31:08.625Z,4.35
2022-12-23T00:33:38.044Z,4.40
2022-12-23T00:36:19.293Z,3.38
2022-12-23T00:39:05.876Z,3.45
2022-12-23T00:41:51.440Z,3.60
2022-12-23T00:44:18.241Z,4.25
2022-12-23T00:46:45.045Z,3.13
2022-12-23T00:49:31.635Z,3.67
2022-12-23T00:54:25.393Z,4.13
2022-12-23T00:56:52.134Z,3.60
2022-12-23T00:59:19.148Z,3.67
2022-12-23T01:02:05.144Z,4.30
2022-12-23T01:04:50.990Z,4.30
2022-12-23T01:07:21.646Z,3.65
2022-12-23T01:09:48.388Z,3.50
2022-12-23T01:12:15.136Z,3.55
2022-12-23T01:14:41.940Z,3.53
2022-12-23T01:17:09.071Z,3.53
2022-12-23T01:19:35.978Z,3.38
2022-12-23T01:22:02.968Z,3.80
2022-12-23T01:24:33.079Z,4.25
2022-12-23T01:27:00.383Z,3.45
2022-12-23T01:29:27.160Z,3.85
2022-12-23T01:31:54.045Z,3.78
2022-12-23T01:34:21.027Z,3.42
2022-12-23T01:36:47.863Z,3.75
2022-12-23T01:39:14.711Z,3.60
2022-12-23T01:42:00.010Z,3.53
2022-12-23T01:45:00.661Z,4.03
2022-12-23T01:47:30.113Z,3.20
2022-12-23T01:50:14.019Z,2.88
2022-12-23T01:52:47.598Z,4.55
2022-12-23T01:55:20.792Z,4.30
2022-12-23T01:57:48.717Z,4.05
2022-12-23T02:00:34.790Z,3.63
2022-12-23T02:03:20.409Z,3.40
2022-12-23T02:05:48.268Z,3.90
2022-12-23T02:08:35.416Z,4.03
2022-12-23T02:11:28.761Z,3.45
2022-12-23T02:14:43.142Z,4.28
2022-12-23T02:17:24.745Z,3.67
2022-12-23T02:20:13.791Z,3.10
2022-12-23T02:22:59.279Z,3.78
2022-12-23T02:25:53.788Z,3.45
2022-12-23T02:29:00.427Z,2.97
2022-12-23T02:31:35.971Z,2.95
2022-12-23T02:34:37.197Z,3.72
2022-12-23T02:37:13.023Z,3.30
2022-12-23T02:39:52.101Z,3.97
2022-12-23T02:42:24.196Z,3.40
2022-12-23T02:45:15.789Z,3.47
2022-12-23T02:47:48.316Z,4.28
2022-12-23T02:50:24.069Z,3.67
2022-12-23T02:52:52.386Z,3.80
2022-12-23T02:55:27.748Z,4.15
2022-12-23T02:57:57.774Z,3.47
2022-12-23T03:00:24.633Z,3.88
2022-12-23T03:02:51.520Z,4.15
2022-12-23T03:05:39.164Z,3.50
2022-12-23T03:08:13.965Z,4.03
2022-12-23T03:10:49.630Z,4.13
2022-12-23T03:13:19.449Z,4.28
2022-12-23T03:15:53.978Z,4.15
2022-12-23T03:18:41.101Z,3.55
2022-12-23T03:21:20.201Z,4.15
2022-12-23T03:24:01.229Z,3.92
2022-12-23T03:26:40.524Z,4.55
2022-12-23T03:29:37.567Z,4.03
2022-12-23T03:34:39.282Z,3.67
2022-12-23T03:37:09.500Z,3.75
2022-12-23T03:39:46.632Z,3.65
2022-12-23T03:42:38.684Z,3.90
2022-12-23T03:50:33.545Z,4.57
2022-12-23T03:53:02.008Z,3.90
2022-12-23T03:55:36.135Z,4.28
2022-12-23T03:58:11.920Z,3.63
2022-12-23T04:00:45.725Z,3.72
2022-12-23T04:03:31.234Z,3.83
2022-12-23T04:06:01.749Z,3.53
2022-12-23T04:08:35.774Z,3.83
2022-12-23T04:11:03.511Z,3.88
2022-12-23T04:13:31.215Z,4.03
2022-12-23T04:16:02.461Z,4.90
2022-12-23T04:18:29.579Z,4.00
2022-12-23T04:20:56.370Z,4.32
2022-12-23T04:23:23.308Z,4.57
2022-12-23T04:25:50.096Z,4.10
2022-12-23T04:28:18.232Z,4.85
2022-12-23T04:30:44.928Z,3.97
2022-12-23T04:33:12.435Z,4.45
2022-12-23T04:35:39.221Z,3.78
2022-12-23T04:38:06.231Z,4.20
2022-12-23T04:40:33.009Z,5.20
2022-12-23T04:42:59.745Z,5.55
2022-12-23T04:45:26.499Z,4.90
2022-12-23T04:47:54.538Z,4.72
2022-12-23T04:50:21.351Z,4.68
2022-12-23T04:52:48.048Z,4.57
2022-12-23T04:55:14.816Z,5.03
2022-12-23T04:57:41.582Z,3.80
2022-12-23T05:00:09.915Z,3.88
2022-12-23T05:02:36.719Z,4.80
2022-12-23T05:05:04.155Z,3.75
2022-12-23T05:07:30.876Z,4.30
2022-12-23T05:10:01.743Z,4.28
2022-12-23T05:12:31.931Z,4.88
2022-12-23T05:14:58.693Z,4.05
2022-12-23T05:17:25.459Z,4.10
2022-12-23T05:19:52.455Z,4.82
2022-12-23T05:22:19.237Z,4.03
2022-12-23T05:24:46.091Z,4.68
2022-12-23T05:27:12.877Z,4.30
2022-12-23T05:29:39.644Z,4.70
2022-12-23T05:32:06.484Z,4.38
2022-12-23T05:34:33.268Z,4.75
2022-12-23T05:37:00.087Z,4.85
2022-12-23T05:39:26.782Z,4.13
2022-12-23T05:41:53.593Z,4.00
2022-12-23T05:44:20.299Z,4.38
2022-12-23T05:46:47.047Z,4.60
2022-12-23T05:49:13.830Z,4.82
2022-12-23T05:51:40.593Z,5.50
2022-12-23T05:54:07.351Z,4.80
2022-12-23T05:56:34.096Z,5.22
2022-12-23T05:59:00.853Z,5.45
2022-12-23T06:01:27.637Z,5.22
2022-12-23T06:03:54.557Z,4.53
2022-12-23T06:06:21.302Z,4.13
2022-12-23T06:08:48.031Z,4.45
2022-12-23T06:11:14.834Z,4.68
2022-12-23T06:13:41.563Z,3.80
2022-12-23T06:16:08.273Z,4.82
2022-12-23T06:18:35.048Z,4.72
2022-12-23T06:21:01.787Z,4.47
2022-12-23T06:23:28.553Z,4.53
2022-12-23T06:26:02.267Z,4.72
2022-12-23T06:28:29.350Z,3.95
2022-12-23T06:30:57.267Z,3.42
2022-12-23T06:33:24.991Z,3.10
2022-12-23T06:35:51.995Z,3.70
2022-12-23T06:38:18.875Z,3.22
2022-12-23T06:40:45.705Z,2.65
2022-12-23T06:43:13.469Z,2.40
2022-12-23T06:45:40.827Z,2.65
2022-12-23T06:48:07.813Z,2.53
2022-12-23T06:50:34.599Z,2.40
2022-12-23T06:53:01.416Z,2.72
2022-12-23T06:55:28.154Z,2.85
2022-12-23T06:57:54.861Z,2.40
2022-12-23T07:00:21.615Z,2.78
2022-12-23T07:02:48.385Z,3.47
2022-12-23T07:05:15.458Z,4.85
2022-12-23T07:07:42.230Z,4.07
2022-12-23T07:10:09.824Z,4.28
2022-12-23T07:12:36.632Z,3.40
2022-12-23T07:15:03.552Z,2.92
2022-12-23T07:17:30.528Z,2.88
2022-12-23T07:19:57.275Z,3.83
2022-12-23T07:22:24.204Z,3.83
2022-12-23T07:24:50.898Z,3.10
2022-12-23T07:27:17.613Z,4.18
2022-12-23T07:29:44.434Z,2.90
2022-12-23T07:32:11.257Z,2.47
2022-12-23T07:34:38.059Z,2.45
2022-12-23T07:37:04.778Z,2.40
2022-12-23T07:39:31.492Z,1.30
2022-12-23T07:42:25.022Z,1.95
2022-12-23T07:54:31.395Z,5.03
2022-12-23T07:56:58.180Z,2.28
2022-12-23T07:59:27.957Z,4.30
2022-12-23T08:01:54.766Z,2.35
2022-12-23T08:04:21.826Z,1.75
2022-12-23T08:06:48.673Z,1.83
2022-12-23T08:09:15.556Z,1.58
2022-12-23T08:11:42.301Z,1.42
2022-12-23T08:14:09.134Z,2.20
2022-12-23T08:16:43.109Z,2.15
2022-12-23T08:19:10.635Z,2.90
2022-12-23T08:21:37.428Z,1.23
2022-12-23T08:24:04.393Z,1.42
2022-12-23T08:26:35.311Z,2.30
2022-12-23T08:29:02.138Z,2.83
2022-12-23T08:31:33.907Z,2.20
2022-12-23T08:34:01.444Z,2.03
2022-12-23T08:36:31.946Z,1.40
2022-12-23T08:39:01.014Z,1.50
2022-12-23T08:41:34.163Z,1.52
2022-12-23T08:44:01.075Z,1.00
2022-12-23T08:46:28.477Z,1.35
2022-12-23T08:48:55.611Z,1.05
2022-12-23T08:51:24.511Z,1.10
2022-12-23T08:53:57.927Z,1.10
2022-12-23T08:56:35.847Z,0.98
2022-12-23T08:59:03.677Z,1.08
2022-12-23T09:01:33.009Z,1.73
2022-12-23T09:04:06.142Z,1.70
2022-12-23T09:06:37.221Z,1.10
2022-12-23T09:09:05.230Z,1.20
2022-12-23T09:11:33.733Z,1.10
2022-12-23T09:14:02.181Z,0.88
2022-12-23T09:16:29.715Z,1.05
2022-12-23T09:18:57.155Z,1.10
2022-12-23T09:21:24.622Z,1.48
2022-12-23T09:23:52.329Z,1.00
2022-12-23T09:26:28.604Z,1.20
2022-12-23T09:28:56.349Z,2.88
2022-12-23T09:31:25.306Z,4.15
2022-12-23T09:33:54.844Z,1.80
2022-12-23T09:36:22.506Z,2.03
2022-12-23T09:38:55.190Z,3.70
2022-12-23T09:41:52.223Z,1.33
2022-12-23T09:44:30.601Z,3.63
2022-12-23T09:47:02.147Z,5.35
2022-12-23T09:49:29.210Z,6.20
2022-12-23T09:52:02.562Z,3.58
2022-12-23T09:54:34.708Z,2.88
2022-12-23T09:57:28.514Z,2.72
2022-12-23T10:00:10.578Z,5.93
2022-12-23T10:03:06.588Z,4.55
2022-12-23T10:05:52.985Z,2.63
2022-12-23T10:08:34.520Z,3.67
2022-12-23T10:11:14.098Z,3.40
2022-12-23T10:14:12.130Z,3.05
2022-12-23T10:16:42.784Z,2.65
2022-12-23T10:19:25.358Z,2.10
2022-12-23T10:22:00.673Z,2.47
2022-12-23T10:24:36.391Z,2.43
2022-12-23T10:27:32.594Z,2.78
2022-12-23T10:30:33.669Z,2.93
2022-12-23T10:33:04.775Z,2.50
2022-12-23T10:35:46.660Z,2.72
2022-12-23T10:38:38.200Z,3.55
2022-12-23T10:41:28.031Z,3.63
2022-12-23T10:44:21.225Z,6.43
2022-12-23T10:46:50.856Z,5.25
2022-12-23T10:49:32.633Z,6.82
2022-12-23T10:52:08.931Z,3.63
2022-12-23T10:54:37.479Z,3.97
2022-12-23T10:57:07.006Z,1.50
2022-12-23T10:59:36.652Z,2.42
2022-12-23T11:02:12.900Z,2.70
2022-12-23T11:04:45.916Z,2.20
2022-12-23T11:07:43.931Z,2.33
2022-12-23T11:10:32.738Z,2.47
2022-12-23T11:13:00.692Z,2.00
2022-12-23T11:15:41.394Z,2.03
2022-12-23T11:18:11.255Z,2.60
2022-12-23T11:20:40.254Z,2.22
2022-12-23T11:23:27.080Z,1.80
2022-12-23T11:26:04.237Z,4.50
2022-12-23T11:28:32.692Z,2.20
2022-12-23T11:31:12.276Z,4.75
2022-12-23T11:33:46.128Z,2.67
2022-12-23T11:36:12.771Z,2.67
2022-12-23T11:39:03.793Z,2.40
2022-12-23T11:41:43.384Z,5.75
2022-12-23T11:44:15.897Z,17.85
2022-12-23T11:46:42.615Z,10.35
2022-12-23T11:49:23.105Z,7.07
2022-12-23T11:52:10.035Z,2.65
2022-12-23T11:54:37.256Z,9.40
2022-12-23T11:57:08.635Z,5.00
2022-12-23T11:59:42.101Z,12.43
2022-12-23T12:02:33.658Z,18.20
2022-12-23T12:05:04.337Z,7.00
2022-12-23T12:07:32.037Z,8.38
2022-12-23T12:10:01.236Z,6.10
2022-12-23T12:12:29.761Z,3.28
2022-12-23T12:15:00.334Z,6.35
2022-12-23T12:17:41.373Z,6.75
2022-12-23T12:20:22.797Z,4.38
2022-12-23T12:23:11.180Z,3.22
2022-12-23T12:25:50.599Z,2.33
2022-12-23T12:28:24.987Z,4.00
2022-12-23T12:30:59.384Z,5.78
2022-12-23T12:33:35.761Z,8.15
2022-12-23T12:36:32.168Z,9.13
2022-12-23T12:39:00.253Z,8.73
2022-12-23T12:41:37.664Z,4.55
2022-12-23T12:44:16.372Z,9.23
2022-12-23T12:46:51.426Z,7.70
2022-12-23T12:49:41.169Z,6.32
2022-12-23T12:52:19.355Z,6.07
2022-12-23T12:54:53.506Z,6.10
2022-12-23T12:57:22.757Z,5.85
2022-12-23T12:59:54.871Z,11.93
2022-12-23T13:02:47.572Z,6.72
2022-12-23T13:05:39.161Z,7.20
2022-12-23T13:08:21.350Z,4.13
2022-12-23T13:11:08.904Z,4.78
2022-12-23T13:14:04.108Z,4.30
2022-12-23T13:16:41.776Z,4.05
2022-12-23T13:19:14.111Z,4.40
2022-12-23T13:22:01.532Z,4.20
2022-12-23T13:24:50.029Z,4.60
2022-12-23T13:28:04.882Z,4.53
2022-12-23T13:30:43.760Z,4.03
2022-12-23T13:33:30.963Z,6.70
2022-12-23T13:36:23.814Z,10.90
2022-12-23T13:39:22.395Z,8.43
2022-12-23T13:41:58.550Z,9.52
2022-12-23T13:44:30.423Z,7.25
2022-12-23T13:47:15.422Z,5.80
2022-12-23T13:49:53.898Z,6.85
2022-12-23T13:52:47.549Z,6.22
2022-12-23T13:55:36.894Z,6.10
2022-12-23T13:58:17.299Z,5.22
2022-12-23T14:00:44.921Z,7.15
2022-12-23T14:03:12.701Z,8.23
2022-12-23T14:05:41.994Z,6.20
2022-12-23T14:08:23.280Z,9.25
2022-12-23T14:11:17.986Z,8.15
2022-12-23T14:13:50.838Z,6.43
2022-12-23T14:16:40.618Z,5.90
2022-12-23T14:19:38.422Z,5.30
2022-12-23T14:22:26.433Z,8.10
2022-12-23T14:25:05.220Z,8.27
2022-12-23T14:27:50.169Z,7.75
2022-12-23T14:30:42.716Z,7.40
2022-12-23T14:33:18.353Z,8.75
2022-12-23T14:35:45.071Z,9.63
2022-12-23T14:38:14.928Z,8.05
2022-12-23T14:40:53.557Z,8.30
2022-12-23T14:43:23.466Z,9.18
2022-12-23T14:45:51.516Z,8.65
2022-12-23T14:48:33.627Z,10.10
2022-12-23T14:51:09.008Z,8.40
2022-12-23T14:53:58.883Z,10.50
2022-12-23T14:56:40.912Z,8.50
2022-12-23T14:59:30.240Z,9.25
2022-12-23T15:02:16.254Z,8.68
2022-12-23T15:04:50.716Z,10.00
2022-12-23T15:07:40.739Z,10.48
2022-12-23T15:10:25.934Z,9.90
2022-12-23T15:12:56.855Z,11.70
2022-12-23T15:15:26.563Z,10.88
2022-12-23T15:18:02.319Z,13.35
2022-12-23T15:20:29.158Z,15.88
2022-12-23T15:23:00.775Z,12.80
2022-12-23T15:25:33.472Z,13.23
2022-12-23T15:28:03.109Z,10.18
2022-12-23T15:30:37.375Z,10.68
2022-12-23T15:33:21.798Z,9.90
2022-12-23T15:35:54.023Z,10.48
2022-12-23T15:38:27.198Z,19.27
2022-12-23T15:41:18.616Z,14.75
2022-12-23T15:43:45.456Z,24.02
2022-12-23T15:46:17.067Z,16.23
2022-12-23T15:48:44.120Z,14.50
2022-12-23T15:51:49.701Z,13.98
2022-12-23T15:54:08.505Z,13.50
2022-12-23T15:56:38.769Z,14.23
2022-12-23T15:59:15.248Z,16.02
2022-12-23T16:01:42.272Z,15.80
2022-12-23T16:04:17.565Z,14.95
2022-12-23T16:06:49.868Z,15.90
2022-12-23T16:09:16.505Z,15.27
2022-12-23T16:11:56.467Z,14.98
2022-12-23T16:14:35.962Z,14.48
2022-12-23T16:17:08.661Z,14.70
2022-12-23T16:19:45.732Z,15.43
2022-12-23T16:22:34.469Z,15.25
2022-12-23T16:25:19.446Z,14.27
2022-12-23T16:27:56.363Z,14.65
2022-12-23T16:30:29.246Z,17.13
2022-12-23T16:32:58.331Z,17.02
2022-12-23T16:35:40.290Z,19.15
2022-12-23T16:38:23.309Z,17.17
2022-12-23T16:40:56.170Z,17.38
2022-12-23T16:43:24.928Z,18.05
2022-12-23T16:45:55.001Z,17.20
2022-12-23T16:48:38.316Z,17.30
2022-12-23T16:51:13.821Z,15.30
2022-12-23T16:53:40.591Z,15.95
2022-12-23T16:56:17.886Z,15.57
2022-12-23T16:58:45.057Z,13.55
2022-12-23T17:01:36.691Z,15.75
2022-12-23T17:04:04.894Z,14.43
2022-12-23T17:06:31.623Z,14.13
2022-12-23T17:08:58.346Z,14.23
2022-12-23T17:11:28.052Z,14.82
2022-12-23T17:14:01.377Z,14.35
2022-12-23T17:16:30.862Z,14.23
2022-12-23T17:18:57.799Z,11.38
2022-12-23T17:21:26.060Z,10.50
2022-12-23T17:23:54.535Z,10.43
2022-12-23T17:26:21.314Z,9.60
2022-12-23T17:28:48.070Z,9.50
2022-12-23T17:31:26.591Z,9.25
2022-12-23T17:33:54.489Z,9.48
2022-12-23T17:36:21.916Z,9.50
2022-12-23T17:38:48.789Z,9.05
2022-12-23T17:41:31.143Z,10.18
2022-12-23T17:43:58.359Z,8.60
2022-12-23T17:46:26.375Z,9.40
2022-12-23T17:48:53.418Z,9.60
2022-12-23T17:51:22.649Z,8.02
2022-12-23T17:53:56.803Z,8.63
2022-12-23T17:56:25.064Z,7.60
2022-12-23T17:58:51.885Z,8.20
2022-12-23T18:01:28.042Z,8.82
2022-12-23T18:06:23.977Z,6.93
2022-12-23T18:08:51.310Z,7.13
2022-12-23T18:11:33.085Z,8.35
2022-12-23T18:14:00.454Z,5.80
2022-12-23T18:16:27.508Z,4.70
2022-12-23T18:18:54.370Z,4.60
2022-12-23T18:21:24.125Z,4.53
2022-12-23T18:23:53.411Z,3.97
2022-12-23T18:26:20.364Z,3.40
2022-12-23T18:28:47.095Z,2.90
2022-12-23T18:31:20.231Z,2.80
2022-12-23T18:33:47.817Z,3.47
2022-12-23T18:36:28.286Z,2.45
2022-12-23T18:38:56.997Z,2.50
2022-12-23T18:41:24.642Z,2.22
2022-12-23T18:43:51.697Z,3.92
2022-12-23T18:46:20.210Z,2.60
2022-12-23T18:48:47.353Z,2.08
2022-12-23T18:51:20.302Z,1.50
2022-12-23T18:53:48.249Z,1.40
2022-12-23T18:56:16.629Z,2.08
2022-12-23T18:58:43.479Z,1.50
2022-12-23T19:01:15.756Z,0.93
2022-12-23T19:03:43.026Z,1.55
2022-12-23T19:06:12.851Z,0.80
2022-12-23T19:08:40.679Z,1.27
2022-12-23T19:11:18.837Z,0.80
2022-12-23T19:13:46.911Z,1.10
2022-12-23T19:16:19.462Z,1.00
2022-12-23T19:18:47.807Z,0.98
2022-12-23T19:21:15.623Z,0.80
2022-12-23T19:23:43.112Z,1.05
2022-12-23T19:26:11.712Z,0.70
2022-12-23T19:28:38.928Z,1.02
2022-12-23T19:31:14.326Z,1.45
2022-12-23T19:33:43.197Z,1.20
2022-12-23T19:36:22.775Z,0.95
2022-12-23T19:38:49.897Z,1.75
2022-12-23T19:41:17.075Z,2.58
2022-12-23T19:43:46.004Z,2.03
2022-12-23T19:46:14.386Z,1.20
2022-12-23T19:48:41.539Z,1.10
2022-12-23T19:51:10.891Z,1.17
2022-12-23T19:53:40.138Z,1.00
2022-12-23T19:56:08.277Z,1.33
2022-12-23T19:58:36.769Z,1.00
2022-12-23T20:01:15.007Z,1.10
2022-12-23T20:03:43.453Z,1.38
2022-12-23T20:06:39.435Z,1.48
2022-12-23T20:09:07.824Z,1.65
2022-12-23T20:11:37.323Z,1.25
2022-12-23T20:14:05.423Z,1.70
2022-12-23T20:16:33.128Z,1.52
2022-12-23T20:18:59.963Z,1.27
2022-12-23T20:21:26.785Z,1.80
2022-12-23T20:23:53.757Z,1.35
2022-12-23T20:26:21.475Z,1.20
2022-12-23T20:28:48.269Z,2.00
2022-12-23T20:31:29.962Z,1.40
2022-12-23T20:33:57.612Z,1.45
2022-12-23T20:36:30.524Z,1.40
2022-12-23T20:38:57.776Z,1.35
2022-12-23T20:41:27.159Z,1.42
2022-12-23T20:44:31.829Z,1.17
2022-12-23T20:46:41.299Z,1.90
2022-12-23T20:49:08.117Z,2.00
2022-12-23T20:51:34.864Z,1.95
2022-12-23T20:54:01.687Z,2.10
2022-12-23T20:56:30.223Z,2.67
2022-12-23T20:58:59.032Z,2.47
2022-12-23T21:01:33.610Z,2.00
2022-12-23T21:04:02.556Z,1.80
2022-12-23T21:06:30.869Z,2.00
2022-12-23T21:08:59.695Z,1.67
2022-12-23T21:11:31.447Z,2.60
2022-12-23T21:14:06.438Z,2.55
2022-12-23T21:16:35.730Z,2.17
2022-12-23T21:19:03.359Z,2.65
2022-12-23T21:21:31.790Z,2.67
2022-12-23T21:24:01.698Z,2.70
2022-12-23T21:26:30.263Z,2.90
2022-12-23T21:28:59.430Z,2.50
2022-12-23T21:31:28.016Z,2.22
2022-12-23T21:33:55.004Z,2.05
2022-12-23T21:36:26.508Z,2.03
2022-12-23T21:38:53.672Z,4.22
2022-12-23T21:41:31.708Z,4.22
2022-12-23T21:43:59.157Z,2.78
2022-12-23T21:46:27.613Z,2.75
2022-12-23T21:48:56.091Z,2.03
2022-12-23T21:51:26.043Z,1.77
2022-12-23T21:53:56.011Z,1.80
2022-12-23T21:56:26.014Z,2.13
2022-12-23T21:59:00.745Z,2.42
2022-12-23T22:01:28.287Z,1.80
2022-12-23T22:03:56.137Z,2.10
2022-12-23T22:06:25.286Z,2.22
2022-12-23T22:08:53.911Z,2.63
2022-12-23T22:11:23.886Z,2.30
2022-12-23T22:13:50.959Z,2.50
2022-12-23T22:16:23.031Z,2.40
2022-12-23T22:18:50.591Z,2.08
2022-12-23T22:21:20.582Z,3.15
2022-12-23T22:23:48.545Z,2.67
2022-12-23T22:26:24.242Z,1.65
2022-12-23T22:28:56.196Z,2.22
2022-12-23T22:31:35.457Z,2.00
2022-12-23T22:34:02.963Z,2.08
2022-12-23T22:36:30.461Z,2.55
2022-12-23T22:38:59.485Z,3.13
2022-12-23T22:41:28.154Z,2.85
2022-12-23T22:43:55.449Z,2.53
2022-12-23T22:46:24.329Z,2.42
2022-12-23T22:48:51.982Z,2.60
2022-12-23T22:51:22.799Z,3.42
2022-12-23T22:53:49.642Z,6.60
2022-12-23T22:56:18.299Z,3.40
2022-12-23T22:58:45.254Z,2.95
2022-12-23T23:01:33.370Z,2.03
2022-12-23T23:04:02.161Z,2.45
2022-12-23T23:06:31.893Z,1.88
2022-12-23T23:08:58.714Z,2.03
2022-12-23T23:11:26.954Z,2.05
2022-12-23T23:13:54.321Z,1.98
2022-12-23T23:16:21.215Z,2.65
2022-12-23T23:18:48.686Z,3.60
2022-12-23T23:21:15.771Z,2.35
2022-12-23T23:23:42.761Z,1.90
2022-12-23T23:26:10.325Z,1.92
2022-12-23T23:28:39.308Z,1.38
2022-12-23T23:31:39.914Z,2.25
2022-12-23T23:33:53.624Z,1.88
2022-12-23T23:36:20.694Z,2.17
2022-12-23T23:38:47.507Z,2.25
2022-12-23T23:41:20.498Z,2.30
2022-12-23T23:43:49.582Z,3.50
2022-12-23T23:46:16.472Z,2.67
2022-12-23T23:48:43.227Z,2.42
2022-12-23T23:51:10.024Z,2.30
2022-12-23T23:53:36.912Z,2.55
2022-12-23T23:56:06.132Z,2.47
2022-12-23T23:58:33.329Z,2.30
